sensor_id;sensor_type;location;lat;lon;timestamp;pressure;altitude;pressure_sealevel;temperature;humidity
42415;BME280;28058;46.344;17.786;2023-03-16T00:00:16;118336.50;;;-144.97;92.89
42415;BME280;28058;46.344;17.786;2023-03-16T00:02:43;118336.50;;;-144.97;92.58
42415;BME280;28058;46.344;17.786;2023-03-16T00:05:12;118336.50;;;-144.97;92.73
42415;BME280;28058;46.344;17.786;2023-03-16T00:07:40;118336.50;;;-144.97;93.03
42415;BME280;28058;46.344;17.786;2023-03-16T00:10:09;118336.50;;;-144.97;93.34
42415;BME280;28058;46.344;17.786;2023-03-16T00:12:38;118336.50;;;-144.97;93.13
42415;BME280;28058;46.344;17.786;2023-03-16T00:15:05;118336.50;;;-144.97;92.52
42415;BME280;28058;46.344;17.786;2023-03-16T00:17:32;118336.50;;;-144.97;93.18
42415;BME280;28058;46.344;17.786;2023-03-16T00:20:00;118336.50;;;-144.97;93.00
42415;BME280;28058;46.344;17.786;2023-03-16T00:22:32;118336.50;;;-144.97;93.39
42415;BME280;28058;46.344;17.786;2023-03-16T00:24:59;118336.50;;;-144.97;94.19
42415;BME280;28058;46.344;17.786;2023-03-16T00:27:26;118336.50;;;-144.97;94.97
42415;BME280;28058;46.344;17.786;2023-03-16T00:29:53;118336.50;;;-144.97;94.59
42415;BME280;28058;46.344;17.786;2023-03-16T00:32:28;118336.50;;;-144.97;95.92
42415;BME280;28058;46.344;17.786;2023-03-16T00:34:57;118336.50;;;-144.97;95.72
42415;BME280;28058;46.344;17.786;2023-03-16T00:37:25;118336.50;;;-144.97;96.25
42415;BME280;28058;46.344;17.786;2023-03-16T00:39:53;118336.50;;;-144.97;96.27
42415;BME280;28058;46.344;17.786;2023-03-16T00:42:26;118336.50;;;-144.97;96.91
42415;BME280;28058;46.344;17.786;2023-03-16T00:44:54;118336.50;;;-144.97;97.41
42415;BME280;28058;46.344;17.786;2023-03-16T00:47:24;118336.50;;;-144.97;97.15
42415;BME280;28058;46.344;17.786;2023-03-16T00:49:51;118336.50;;;-144.97;97.75
42415;BME280;28058;46.344;17.786;2023-03-16T00:52:18;118336.50;;;-144.97;97.79
42415;BME280;28058;46.344;17.786;2023-03-16T00:54:46;118336.50;;;-144.97;98.27
42415;BME280;28058;46.344;17.786;2023-03-16T00:57:15;118336.50;;;-144.97;99.38
42415;BME280;28058;46.344;17.786;2023-03-16T00:59:44;118336.50;;;-144.97;99.83
42415;BME280;28058;46.344;17.786;2023-03-16T01:02:13;118336.50;;;-144.97;99.95
42415;BME280;28058;46.344;17.786;2023-03-16T01:04:41;118336.50;;;-144.97;100.00
42415;BME280;28058;46.344;17.786;2023-03-16T01:07:11;118336.50;;;-144.97;100.00
42415;BME280;28058;46.344;17.786;2023-03-16T01:09:39;118336.50;;;-144.97;100.00
42415;BME280;28058;46.344;17.786;2023-03-16T01:12:09;118336.50;;;-144.97;100.00
42415;BME280;28058;46.344;17.786;2023-03-16T01:14:37;118336.50;;;-144.97;100.00
42415;BME280;28058;46.344;17.786;2023-03-16T01:17:06;118336.50;;;-144.97;100.00
42415;BME280;28058;46.344;17.786;2023-03-16T01:19:37;118336.50;;;-144.97;100.00
42415;BME280;28058;46.344;17.786;2023-03-16T01:22:05;118336.50;;;-144.97;100.00
42415;BME280;28058;46.344;17.786;2023-03-16T01:24:32;118336.50;;;-144.97;100.00
42415;BME280;28058;46.344;17.786;2023-03-16T01:27:00;118336.50;;;-144.97;100.00
42415;BME280;28058;46.344;17.786;2023-03-16T01:29:27;118336.50;;;-144.97;100.00
42415;BME280;28058;46.344;17.786;2023-03-16T01:31:55;118336.50;;;-144.97;100.00
42415;BME280;28058;46.344;17.786;2023-03-16T01:34:22;118336.50;;;-144.97;100.00
42415;BME280;28058;46.344;17.786;2023-03-16T01:36:50;118336.50;;;-144.97;100.00
42415;BME280;28058;46.344;17.786;2023-03-16T01:39:17;118336.50;;;-144.97;100.00
42415;BME280;28058;46.344;17.786;2023-03-16T01:41:45;118336.50;;;-144.97;100.00
42415;BME280;28058;46.344;17.786;2023-03-16T01:44:14;118336.50;;;-144.97;100.00
42415;BME280;28058;46.344;17.786;2023-03-16T01:46:41;118336.50;;;-144.97;100.00
42415;BME280;28058;46.344;17.786;2023-03-16T01:51:54;118336.50;;;-144.97;100.00
42415;BME280;28058;46.344;17.786;2023-03-16T01:54:34;118336.50;;;-144.97;100.00
42415;BME280;28058;46.344;17.786;2023-03-16T01:57:08;118336.50;;;-144.97;100.00
42415;BME280;28058;46.344;17.786;2023-03-16T01:59:50;118336.50;;;-144.97;100.00
42415;BME280;28058;46.344;17.786;2023-03-16T02:02:20;118336.50;;;-144.97;100.00
42415;BME280;28058;46.344;17.786;2023-03-16T02:05:02;118336.50;;;-144.97;100.00
42415;BME280;28058;46.344;17.786;2023-03-16T02:07:36;118336.50;;;-144.97;100.00
42415;BME280;28058;46.344;17.786;2023-03-16T02:10:05;118336.50;;;-144.97;100.00
42415;BME280;28058;46.344;17.786;2023-03-16T02:12:33;118336.50;;;-144.97;100.00
42415;BME280;28058;46.344;17.786;2023-03-16T02:14:59;118336.50;;;-144.97;100.00
42415;BME280;28058;46.344;17.786;2023-03-16T02:17:28;118336.50;;;-144.97;100.00
42415;BME280;28058;46.344;17.786;2023-03-16T02:22:31;118336.50;;;-144.97;100.00
42415;BME280;28058;46.344;17.786;2023-03-16T02:25:01;118336.50;;;-144.97;100.00
42415;BME280;28058;46.344;17.786;2023-03-16T02:30:13;118336.50;;;-144.97;100.00
42415;BME280;28058;46.344;17.786;2023-03-16T02:32:40;118336.50;;;-144.97;100.00
42415;BME280;28058;46.344;17.786;2023-03-16T02:35:09;118336.50;;;-144.97;100.00
42415;BME280;28058;46.344;17.786;2023-03-16T02:37:35;118336.50;;;-144.97;100.00
42415;BME280;28058;46.344;17.786;2023-03-16T02:42:43;118336.50;;;-144.97;100.00
42415;BME280;28058;46.344;17.786;2023-03-16T02:45:10;118336.50;;;-144.97;100.00
42415;BME280;28058;46.344;17.786;2023-03-16T02:47:42;118336.50;;;-144.97;100.00
42415;BME280;28058;46.344;17.786;2023-03-16T02:50:11;118336.50;;;-144.97;100.00
42415;BME280;28058;46.344;17.786;2023-03-16T02:52:38;118336.50;;;-144.97;100.00
42415;BME280;28058;46.344;17.786;2023-03-16T02:55:07;118336.50;;;-144.97;100.00
42415;BME280;28058;46.344;17.786;2023-03-16T02:57:34;118336.50;;;-144.97;100.00
42415;BME280;28058;46.344;17.786;2023-03-16T03:00:01;118336.50;;;-144.97;100.00
42415;BME280;28058;46.344;17.786;2023-03-16T03:02:33;118336.50;;;-144.97;100.00
42415;BME280;28058;46.344;17.786;2023-03-16T03:05:00;118336.50;;;-144.97;100.00
42415;BME280;28058;46.344;17.786;2023-03-16T03:07:27;118336.50;;;-144.97;100.00
42415;BME280;28058;46.344;17.786;2023-03-16T03:09:57;118336.50;;;-144.97;100.00
42415;BME280;28058;46.344;17.786;2023-03-16T03:12:24;118336.50;;;-144.97;100.00
42415;BME280;28058;46.344;17.786;2023-03-16T03:14:51;118336.50;;;-144.97;100.00
42415;BME280;28058;46.344;17.786;2023-03-16T03:17:18;118336.50;;;-144.97;100.00
42415;BME280;28058;46.344;17.786;2023-03-16T03:19:45;118336.50;;;-144.97;100.00
42415;BME280;28058;46.344;17.786;2023-03-16T03:22:12;118336.50;;;-144.97;100.00
42415;BME280;28058;46.344;17.786;2023-03-16T03:24:43;118336.50;;;-144.97;100.00
42415;BME280;28058;46.344;17.786;2023-03-16T03:27:10;118336.50;;;-144.97;100.00
42415;BME280;28058;46.344;17.786;2023-03-16T03:29:37;118336.50;;;-144.97;100.00
42415;BME280;28058;46.344;17.786;2023-03-16T03:32:05;118336.50;;;-144.97;100.00
42415;BME280;28058;46.344;17.786;2023-03-16T03:34:32;118336.50;;;-144.97;100.00
42415;BME280;28058;46.344;17.786;2023-03-16T03:36:59;118336.50;;;-144.97;100.00
42415;BME280;28058;46.344;17.786;2023-03-16T03:39:26;118336.50;;;-144.97;100.00
42415;BME280;28058;46.344;17.786;2023-03-16T03:41:53;118336.50;;;-144.97;100.00
42415;BME280;28058;46.344;17.786;2023-03-16T03:44:21;118336.50;;;-144.97;100.00
42415;BME280;28058;46.344;17.786;2023-03-16T03:46:48;118336.50;;;-144.97;100.00
42415;BME280;28058;46.344;17.786;2023-03-16T03:49:15;118336.50;;;-144.97;100.00
42415;BME280;28058;46.344;17.786;2023-03-16T03:51:43;118336.50;;;-144.97;100.00
42415;BME280;28058;46.344;17.786;2023-03-16T03:54:10;118336.50;;;-144.97;100.00
42415;BME280;28058;46.344;17.786;2023-03-16T03:56:37;118336.50;;;-144.97;100.00
42415;BME280;28058;46.344;17.786;2023-03-16T03:59:04;118336.50;;;-144.97;100.00
42415;BME280;28058;46.344;17.786;2023-03-16T04:01:31;118336.50;;;-144.97;100.00
42415;BME280;28058;46.344;17.786;2023-03-16T04:03:58;118336.50;;;-144.97;100.00
42415;BME280;28058;46.344;17.786;2023-03-16T04:06:25;118336.50;;;-144.97;100.00
42415;BME280;28058;46.344;17.786;2023-03-16T04:08:51;118336.50;;;-144.97;100.00
42415;BME280;28058;46.344;17.786;2023-03-16T04:11:20;118336.50;;;-144.97;100.00
42415;BME280;28058;46.344;17.786;2023-03-16T04:13:47;118336.50;;;-144.97;100.00
42415;BME280;28058;46.344;17.786;2023-03-16T04:16:16;118336.50;;;-144.97;100.00
42415;BME280;28058;46.344;17.786;2023-03-16T04:18:43;118336.50;;;-144.97;100.00
42415;BME280;28058;46.344;17.786;2023-03-16T04:21:14;118336.50;;;-144.97;100.00
42415;BME280;28058;46.344;17.786;2023-03-16T04:23:42;118336.50;;;-144.97;100.00
42415;BME280;28058;46.344;17.786;2023-03-16T04:26:10;118336.50;;;-144.97;100.00
42415;BME280;28058;46.344;17.786;2023-03-16T04:28:37;118336.50;;;-144.97;100.00
42415;BME280;28058;46.344;17.786;2023-03-16T04:31:08;118336.50;;;-144.97;100.00
42415;BME280;28058;46.344;17.786;2023-03-16T04:33:37;118336.50;;;-144.97;100.00
42415;BME280;28058;46.344;17.786;2023-03-16T04:36:05;118336.50;;;-144.97;100.00
42415;BME280;28058;46.344;17.786;2023-03-16T04:38:34;118336.50;;;-144.97;100.00
42415;BME280;28058;46.344;17.786;2023-03-16T04:41:02;118336.50;;;-144.97;100.00
42415;BME280;28058;46.344;17.786;2023-03-16T04:43:30;118336.50;;;-144.97;100.00
42415;BME280;28058;46.344;17.786;2023-03-16T04:46:00;118336.50;;;-144.97;100.00
42415;BME280;28058;46.344;17.786;2023-03-16T04:48:29;118336.50;;;-144.97;100.00
42415;BME280;28058;46.344;17.786;2023-03-16T04:50:56;118336.50;;;-144.97;100.00
42415;BME280;28058;46.344;17.786;2023-03-16T04:53:22;118336.50;;;-144.97;100.00
42415;BME280;28058;46.344;17.786;2023-03-16T04:55:50;118336.50;;;-144.97;100.00
42415;BME280;28058;46.344;17.786;2023-03-16T04:58:16;118336.50;;;-144.97;100.00
42415;BME280;28058;46.344;17.786;2023-03-16T05:00:43;118336.50;;;-144.97;100.00
42415;BME280;28058;46.344;17.786;2023-03-16T05:03:11;118336.50;;;-144.97;100.00
42415;BME280;28058;46.344;17.786;2023-03-16T05:05:38;118336.50;;;-144.97;100.00
42415;BME280;28058;46.344;17.786;2023-03-16T05:08:05;118336.50;;;-144.97;100.00
42415;BME280;28058;46.344;17.786;2023-03-16T05:10:33;118336.50;;;-144.97;100.00
42415;BME280;28058;46.344;17.786;2023-03-16T05:13:00;118336.50;;;-144.97;100.00
42415;BME280;28058;46.344;17.786;2023-03-16T05:15:27;118336.50;;;-144.97;100.00
42415;BME280;28058;46.344;17.786;2023-03-16T05:17:54;118336.50;;;-144.97;100.00
42415;BME280;28058;46.344;17.786;2023-03-16T05:20:22;118336.50;;;-144.97;100.00
42415;BME280;28058;46.344;17.786;2023-03-16T05:22:50;118336.50;;;-144.97;100.00
42415;BME280;28058;46.344;17.786;2023-03-16T05:25:18;118336.50;;;-144.97;100.00
42415;BME280;28058;46.344;17.786;2023-03-16T05:27:49;118336.50;;;-144.97;100.00
42415;BME280;28058;46.344;17.786;2023-03-16T05:30:18;118336.50;;;-144.97;100.00
42415;BME280;28058;46.344;17.786;2023-03-16T05:32:45;118336.50;;;-144.97;100.00
42415;BME280;28058;46.344;17.786;2023-03-16T05:35:12;118336.50;;;-144.97;100.00
42415;BME280;28058;46.344;17.786;2023-03-16T05:37:40;118336.50;;;-144.97;100.00
42415;BME280;28058;46.344;17.786;2023-03-16T05:40:09;118336.50;;;-144.97;100.00
42415;BME280;28058;46.344;17.786;2023-03-16T05:42:45;118336.50;;;-144.97;100.00
42415;BME280;28058;46.344;17.786;2023-03-16T05:45:13;118336.50;;;-144.97;100.00
42415;BME280;28058;46.344;17.786;2023-03-16T05:47:41;118336.50;;;-144.97;100.00
42415;BME280;28058;46.344;17.786;2023-03-16T05:50:10;118336.50;;;-144.97;100.00
42415;BME280;28058;46.344;17.786;2023-03-16T05:52:38;118336.50;;;-144.97;100.00
42415;BME280;28058;46.344;17.786;2023-03-16T05:55:06;118336.50;;;-144.97;100.00
42415;BME280;28058;46.344;17.786;2023-03-16T05:57:34;118336.50;;;-144.97;100.00
42415;BME280;28058;46.344;17.786;2023-03-16T06:00:03;118336.50;;;-144.97;100.00
42415;BME280;28058;46.344;17.786;2023-03-16T06:02:44;118336.50;;;-144.97;100.00
42415;BME280;28058;46.344;17.786;2023-03-16T06:05:16;118336.50;;;-144.97;100.00
42415;BME280;28058;46.344;17.786;2023-03-16T06:07:43;118336.50;;;-144.97;100.00
42415;BME280;28058;46.344;17.786;2023-03-16T06:10:11;118336.50;;;-144.97;100.00
42415;BME280;28058;46.344;17.786;2023-03-16T06:12:39;118336.50;;;-144.97;100.00
42415;BME280;28058;46.344;17.786;2023-03-16T06:15:07;118336.50;;;-144.97;100.00
42415;BME280;28058;46.344;17.786;2023-03-16T06:17:36;118336.50;;;-144.97;100.00
42415;BME280;28058;46.344;17.786;2023-03-16T06:20:05;118336.50;;;-144.97;100.00
42415;BME280;28058;46.344;17.786;2023-03-16T06:22:38;118336.50;;;-144.97;100.00
42415;BME280;28058;46.344;17.786;2023-03-16T06:25:06;118336.50;;;-144.97;100.00
42415;BME280;28058;46.344;17.786;2023-03-16T06:27:33;118336.50;;;-144.97;100.00
42415;BME280;28058;46.344;17.786;2023-03-16T06:30:00;118336.50;;;-144.97;100.00
42415;BME280;28058;46.344;17.786;2023-03-16T06:32:27;118336.50;;;-144.97;100.00
42415;BME280;28058;46.344;17.786;2023-03-16T06:34:54;118336.50;;;-144.97;100.00
42415;BME280;28058;46.344;17.786;2023-03-16T06:37:21;118336.50;;;-144.97;100.00
42415;BME280;28058;46.344;17.786;2023-03-16T06:39:48;118336.50;;;-144.97;100.00
42415;BME280;28058;46.344;17.786;2023-03-16T06:42:15;118336.50;;;-144.97;100.00
42415;BME280;28058;46.344;17.786;2023-03-16T06:44:42;118336.50;;;-144.97;100.00
42415;BME280;28058;46.344;17.786;2023-03-16T06:47:09;118336.50;;;-144.97;100.00
42415;BME280;28058;46.344;17.786;2023-03-16T06:49:36;118336.50;;;-144.97;100.00
42415;BME280;28058;46.344;17.786;2023-03-16T06:52:03;118336.50;;;-144.97;100.00
42415;BME280;28058;46.344;17.786;2023-03-16T06:54:30;118336.50;;;-144.97;100.00
42415;BME280;28058;46.344;17.786;2023-03-16T06:57:00;118336.50;;;-144.97;100.00
42415;BME280;28058;46.344;17.786;2023-03-16T06:59:28;118336.50;;;-144.97;100.00
42415;BME280;28058;46.344;17.786;2023-03-16T07:01:55;118336.50;;;-144.97;100.00
42415;BME280;28058;46.344;17.786;2023-03-16T07:04:22;118336.50;;;-144.97;98.01
42415;BME280;28058;46.344;17.786;2023-03-16T07:06:49;118336.50;;;-144.97;80.76
42415;BME280;28058;46.344;17.786;2023-03-16T07:09:16;118336.50;;;-144.97;81.16
42415;BME280;28058;46.344;17.786;2023-03-16T07:11:43;118336.50;;;-144.97;76.04
42415;BME280;28058;46.344;17.786;2023-03-16T07:14:10;118336.50;;;-144.97;71.47
42415;BME280;28058;46.344;17.786;2023-03-16T07:16:37;118336.50;;;-144.97;70.92
42415;BME280;28058;46.344;17.786;2023-03-16T07:19:04;118336.50;;;-144.97;68.97
42415;BME280;28058;46.344;17.786;2023-03-16T07:21:31;118336.50;;;-144.97;65.89
42415;BME280;28058;46.344;17.786;2023-03-16T07:24:05;118336.50;;;-144.97;66.18
42415;BME280;28058;46.344;17.786;2023-03-16T07:26:32;118336.50;;;-144.97;63.92
42415;BME280;28058;46.344;17.786;2023-03-16T07:28:59;118336.50;;;-144.97;59.60
42415;BME280;28058;46.344;17.786;2023-03-16T07:31:26;118336.50;;;-144.97;57.28
42415;BME280;28058;46.344;17.786;2023-03-16T07:33:53;118336.50;;;-144.97;57.14
42415;BME280;28058;46.344;17.786;2023-03-16T07:36:20;118336.50;;;-144.97;56.61
42415;BME280;28058;46.344;17.786;2023-03-16T07:38:47;118336.50;;;-144.97;59.14
42415;BME280;28058;46.344;17.786;2023-03-16T07:41:14;118336.50;;;-144.97;59.86
42415;BME280;28058;46.344;17.786;2023-03-16T07:43:41;118336.50;;;-144.97;53.91
42415;BME280;28058;46.344;17.786;2023-03-16T07:46:07;118336.50;;;-144.97;56.36
42415;BME280;28058;46.344;17.786;2023-03-16T07:48:34;118336.50;;;-144.97;54.10
42415;BME280;28058;46.344;17.786;2023-03-16T07:51:01;118336.50;;;-144.97;54.72
42415;BME280;28058;46.344;17.786;2023-03-16T07:53:28;118336.50;;;-144.97;49.22
42415;BME280;28058;46.344;17.786;2023-03-16T07:55:55;118336.50;;;-144.97;47.34
42415;BME280;28058;46.344;17.786;2023-03-16T07:58:21;118336.50;;;-144.97;46.36
42415;BME280;28058;46.344;17.786;2023-03-16T08:00:48;118336.50;;;-144.97;46.29
42415;BME280;28058;46.344;17.786;2023-03-16T08:03:15;118336.50;;;-144.97;49.42
42415;BME280;28058;46.344;17.786;2023-03-16T08:05:42;118336.50;;;-144.97;48.81
42415;BME280;28058;46.344;17.786;2023-03-16T08:08:08;118336.50;;;-144.97;47.21
42415;BME280;28058;46.344;17.786;2023-03-16T08:10:35;118336.50;;;-144.97;45.73
42415;BME280;28058;46.344;17.786;2023-03-16T08:13:02;118336.50;;;-144.97;44.33
42415;BME280;28058;46.344;17.786;2023-03-16T08:15:32;118336.50;;;-144.97;49.56
42415;BME280;28058;46.344;17.786;2023-03-16T08:17:59;118336.50;;;-144.97;47.48
42415;BME280;28058;46.344;17.786;2023-03-16T08:20:28;118336.50;;;-144.97;45.21
42415;BME280;28058;46.344;17.786;2023-03-16T08:22:56;118336.50;;;-144.97;44.40
42415;BME280;28058;46.344;17.786;2023-03-16T08:25:23;118336.50;;;-144.97;43.16
42415;BME280;28058;46.344;17.786;2023-03-16T08:27:49;118336.50;;;-144.97;43.01
42415;BME280;28058;46.344;17.786;2023-03-16T08:30:16;118336.50;;;-144.97;43.13
42415;BME280;28058;46.344;17.786;2023-03-16T08:32:43;118336.50;;;-144.97;44.25
42415;BME280;28058;46.344;17.786;2023-03-16T08:35:11;118336.50;;;-144.97;44.10
42415;BME280;28058;46.344;17.786;2023-03-16T08:37:42;118336.50;;;-144.97;43.88
42415;BME280;28058;46.344;17.786;2023-03-16T08:40:09;118336.50;;;-144.97;42.38
42415;BME280;28058;46.344;17.786;2023-03-16T08:42:39;118336.50;;;-144.97;44.32
42415;BME280;28058;46.344;17.786;2023-03-16T08:45:06;118336.50;;;-144.97;44.90
42415;BME280;28058;46.344;17.786;2023-03-16T08:47:38;118336.50;;;-144.97;44.17
42415;BME280;28058;46.344;17.786;2023-03-16T08:50:06;118336.50;;;-144.97;43.42
42415;BME280;28058;46.344;17.786;2023-03-16T08:52:33;118336.50;;;-144.97;44.25
42415;BME280;28058;46.344;17.786;2023-03-16T08:54:59;118336.50;;;-144.97;45.82
42415;BME280;28058;46.344;17.786;2023-03-16T08:57:29;118336.50;;;-144.97;43.31
42415;BME280;28058;46.344;17.786;2023-03-16T08:59:56;118336.50;;;-144.97;43.31
42415;BME280;28058;46.344;17.786;2023-03-16T09:02:22;118336.50;;;-144.97;48.86
42415;BME280;28058;46.344;17.786;2023-03-16T09:04:50;118336.50;;;-144.97;41.92
42415;BME280;28058;46.344;17.786;2023-03-16T09:07:18;118336.50;;;-144.97;41.79
42415;BME280;28058;46.344;17.786;2023-03-16T09:09:45;118336.50;;;-144.97;42.40
42415;BME280;28058;46.344;17.786;2023-03-16T09:12:12;118336.50;;;-144.97;40.16
42415;BME280;28058;46.344;17.786;2023-03-16T09:14:39;118336.50;;;-144.97;40.41
42415;BME280;28058;46.344;17.786;2023-03-16T09:17:06;118336.50;;;-144.97;40.52
42415;BME280;28058;46.344;17.786;2023-03-16T09:19:37;118336.50;;;-144.97;49.94
42415;BME280;28058;46.344;17.786;2023-03-16T09:22:24;118336.50;;;-144.97;48.69
42415;BME280;28058;46.344;17.786;2023-03-16T09:24:54;118336.50;;;-144.97;45.32
42415;BME280;28058;46.344;17.786;2023-03-16T09:27:21;118336.50;;;-144.97;48.67
42415;BME280;28058;46.344;17.786;2023-03-16T09:29:47;118336.50;;;-144.97;49.03
42415;BME280;28058;46.344;17.786;2023-03-16T09:32:18;118336.50;;;-144.97;50.24
42415;BME280;28058;46.344;17.786;2023-03-16T09:34:45;118336.50;;;-144.97;51.62
42415;BME280;28058;46.344;17.786;2023-03-16T09:37:11;118336.50;;;-144.97;56.95
42415;BME280;28058;46.344;17.786;2023-03-16T09:39:38;118336.50;;;-144.97;57.00
42415;BME280;28058;46.344;17.786;2023-03-16T09:46:58;118336.50;;;-144.97;54.48
42415;BME280;28058;46.344;17.786;2023-03-16T09:49:27;118336.50;;;-144.97;52.59
42415;BME280;28058;46.344;17.786;2023-03-16T09:52:22;118336.50;;;-144.97;57.22
42415;BME280;28058;46.344;17.786;2023-03-16T09:57:31;118336.50;;;-144.97;52.80
42415;BME280;28058;46.344;17.786;2023-03-16T10:05:14;118336.50;;;-144.97;54.05
42415;BME280;28058;46.344;17.786;2023-03-16T10:13:12;118336.50;;;-144.97;55.59
42415;BME280;28058;46.344;17.786;2023-03-16T10:15:42;118336.50;;;-144.97;53.27
42415;BME280;28058;46.344;17.786;2023-03-16T10:18:09;118336.50;;;-144.97;50.33
42415;BME280;28058;46.344;17.786;2023-03-16T10:20:40;118336.50;;;-144.97;49.59
42415;BME280;28058;46.344;17.786;2023-03-16T10:23:12;118336.50;;;-144.97;49.13
42415;BME280;28058;46.344;17.786;2023-03-16T10:25:43;118336.50;;;-144.97;49.11
42415;BME280;28058;46.344;17.786;2023-03-16T10:28:18;118336.50;;;-144.97;48.30
42415;BME280;28058;46.344;17.786;2023-03-16T10:30:46;118336.50;;;-144.97;49.14
42415;BME280;28058;46.344;17.786;2023-03-16T10:33:23;118336.50;;;-144.97;46.24
42415;BME280;28058;46.344;17.786;2023-03-16T10:40:52;118336.50;;;-144.97;46.59
42415;BME280;28058;46.344;17.786;2023-03-16T10:43:19;118336.50;;;-144.97;44.04
42415;BME280;28058;46.344;17.786;2023-03-16T10:45:46;118336.50;;;-144.97;43.12
42415;BME280;28058;46.344;17.786;2023-03-16T10:48:14;118336.50;;;-144.97;43.60
42415;BME280;28058;46.344;17.786;2023-03-16T10:50:42;118336.50;;;-144.97;44.06
42415;BME280;28058;46.344;17.786;2023-03-16T10:53:19;118336.50;;;-144.97;44.64
42415;BME280;28058;46.344;17.786;2023-03-16T10:55:47;118336.50;;;-144.97;43.88
42415;BME280;28058;46.344;17.786;2023-03-16T11:11:02;118336.50;;;-144.97;40.95
42415;BME280;28058;46.344;17.786;2023-03-16T11:13:34;118336.50;;;-144.97;40.67
42415;BME280;28058;46.344;17.786;2023-03-16T11:16:05;118336.50;;;-144.97;39.79
42415;BME280;28058;46.344;17.786;2023-03-16T11:18:40;118336.50;;;-144.97;39.31
42415;BME280;28058;46.344;17.786;2023-03-16T11:23:55;118336.50;;;-144.97;39.73
42415;BME280;28058;46.344;17.786;2023-03-16T11:28:52;118336.50;;;-144.97;39.25
42415;BME280;28058;46.344;17.786;2023-03-16T11:31:32;118336.50;;;-144.97;37.86
42415;BME280;28058;46.344;17.786;2023-03-16T11:34:11;118336.50;;;-144.97;38.56
42415;BME280;28058;46.344;17.786;2023-03-16T11:36:47;118336.50;;;-144.97;37.86
42415;BME280;28058;46.344;17.786;2023-03-16T11:42:08;118336.50;;;-144.97;37.53
42415;BME280;28058;46.344;17.786;2023-03-16T11:44:54;118336.50;;;-144.97;37.13
42415;BME280;28058;46.344;17.786;2023-03-16T11:50:20;118336.50;;;-144.97;36.28
42415;BME280;28058;46.344;17.786;2023-03-16T11:52:55;118336.50;;;-144.97;35.96
42415;BME280;28058;46.344;17.786;2023-03-16T11:55:38;118336.50;;;-144.97;35.36
42415;BME280;28058;46.344;17.786;2023-03-16T11:58:43;118336.50;;;-144.97;35.92
42415;BME280;28058;46.344;17.786;2023-03-16T12:16:25;118336.50;;;-144.97;34.89
42415;BME280;28058;46.344;17.786;2023-03-16T12:19:16;118336.50;;;-144.97;33.53
42415;BME280;28058;46.344;17.786;2023-03-16T12:21:48;118336.50;;;-144.97;34.05
42415;BME280;28058;46.344;17.786;2023-03-16T12:24:19;118336.50;;;-144.97;34.80
42415;BME280;28058;46.344;17.786;2023-03-16T12:26:47;118336.50;;;-144.97;34.22
42415;BME280;28058;46.344;17.786;2023-03-16T12:29:34;118336.50;;;-144.97;34.11
42415;BME280;28058;46.344;17.786;2023-03-16T12:35:02;118336.50;;;-144.97;33.01
42415;BME280;28058;46.344;17.786;2023-03-16T12:40:03;118336.50;;;-144.97;32.80
42415;BME280;28058;46.344;17.786;2023-03-16T12:45:16;118336.50;;;-144.97;32.67
42415;BME280;28058;46.344;17.786;2023-03-16T12:50:18;118336.50;;;-144.97;32.11
42415;BME280;28058;46.344;17.786;2023-03-16T12:52:46;118336.50;;;-144.97;30.74
42415;BME280;28058;46.344;17.786;2023-03-16T12:57:47;118336.50;;;-144.97;30.59
42415;BME280;28058;46.344;17.786;2023-03-16T13:00:15;118336.50;;;-144.97;30.86
42415;BME280;28058;46.344;17.786;2023-03-16T13:02:43;118336.50;;;-144.97;30.26
42415;BME280;28058;46.344;17.786;2023-03-16T13:05:13;118336.50;;;-144.97;30.75
42415;BME280;28058;46.344;17.786;2023-03-16T13:07:49;118336.50;;;-144.97;31.15
42415;BME280;28058;46.344;17.786;2023-03-16T13:10:17;118336.50;;;-144.97;30.17
42415;BME280;28058;46.344;17.786;2023-03-16T13:12:46;118336.50;;;-144.97;30.19
42415;BME280;28058;46.344;17.786;2023-03-16T13:20:58;118336.50;;;-144.97;30.44
42415;BME280;28058;46.344;17.786;2023-03-16T13:28:34;118336.50;;;-144.97;29.20
42415;BME280;28058;46.344;17.786;2023-03-16T13:31:02;118336.50;;;-144.97;28.95
42415;BME280;28058;46.344;17.786;2023-03-16T13:33:32;118336.50;;;-144.97;29.18
42415;BME280;28058;46.344;17.786;2023-03-16T13:36:03;118336.50;;;-144.97;29.49
42415;BME280;28058;46.344;17.786;2023-03-16T13:38:31;118336.50;;;-144.97;29.58
42415;BME280;28058;46.344;17.786;2023-03-16T13:41:09;118336.50;;;-144.97;29.32
42415;BME280;28058;46.344;17.786;2023-03-16T13:43:40;118336.50;;;-144.97;29.10
42415;BME280;28058;46.344;17.786;2023-03-16T13:46:20;118336.50;;;-144.97;29.71
42415;BME280;28058;46.344;17.786;2023-03-16T13:48:48;118336.50;;;-144.97;28.90
42415;BME280;28058;46.344;17.786;2023-03-16T13:51:17;118336.50;;;-144.97;29.48
42415;BME280;28058;46.344;17.786;2023-03-16T13:53:47;118336.50;;;-144.97;30.11
42415;BME280;28058;46.344;17.786;2023-03-16T13:56:17;118336.50;;;-144.97;29.26
42415;BME280;28058;46.344;17.786;2023-03-16T13:58:49;118336.50;;;-144.97;29.14
42415;BME280;28058;46.344;17.786;2023-03-16T14:01:27;118336.50;;;-144.97;29.39